createdAt,value
2019-05-15T00:03:08.921Z,62.60
2019-05-15T00:08:09.388Z,62.60
2019-05-15T00:13:09.605Z,63.50
2019-05-15T00:18:09.313Z,63.40
2019-05-15T00:23:08.911Z,63.20
2019-05-15T00:28:09.383Z,63.60
2019-05-15T00:33:09.471Z,64.30
2019-05-15T00:38:09.549Z,64.60
2019-05-15T00:43:10.233Z,64.40
2019-05-15T00:48:09.770Z,64.30
2019-05-15T00:53:09.414Z,65.00
2019-05-15T00:58:09.041Z,65.10
2019-05-15T01:03:09.663Z,66.10
2019-05-15T01:08:09.475Z,66.20
2019-05-15T01:13:09.999Z,67.10
2019-05-15T01:18:09.592Z,67.90
2019-05-15T01:23:09.254Z,67.40
2019-05-15T01:28:09.359Z,67.50
2019-05-15T01:33:09.319Z,68.70
2019-05-15T01:38:08.879Z,69.20
2019-05-15T01:43:09.030Z,68.70
2019-05-15T01:48:09.080Z,69.40
2019-05-15T01:53:08.656Z,69.70
2019-05-15T01:58:09.128Z,70.00
2019-05-15T02:03:09.973Z,70.00
2019-05-15T02:08:09.715Z,70.70
2019-05-15T02:13:09.255Z,71.60
2019-05-15T02:18:08.803Z,72.20
2019-05-15T02:23:11.577Z,72.40
2019-05-15T02:28:10.101Z,73.80
2019-05-15T02:33:10.463Z,73.70
2019-05-15T02:38:15.282Z,74.50
2019-05-15T02:43:11.953Z,73.90
2019-05-15T02:48:11.498Z,75.70
2019-05-15T02:53:11.044Z,76.60
2019-05-15T02:58:10.787Z,76.60
2019-05-15T03:03:10.486Z,77.00
2019-05-15T03:08:10.094Z,79.40
2019-05-15T03:13:10.273Z,79.90
2019-05-15T03:18:10.333Z,79.90
2019-05-15T03:23:10.337Z,80.80
2019-05-15T03:28:11.252Z,83.70
2019-05-15T03:33:20.793Z,84.00
2019-05-15T03:38:14.188Z,85.00
2019-05-15T03:43:13.726Z,86.80
2019-05-15T03:48:13.276Z,87.30
2019-05-15T03:53:13.026Z,89.60
2019-05-15T03:58:12.634Z,90.00
2019-05-15T04:03:12.268Z,89.70
2019-05-15T04:08:11.806Z,90.60
2019-05-15T04:13:11.543Z,91.40
2019-05-15T04:18:11.157Z,90.60
2019-05-15T04:23:11.372Z,90.80
2019-05-15T04:28:12.423Z,90.40
2019-05-15T04:33:11.965Z,89.90
2019-05-15T04:38:11.521Z,90.10
2019-05-15T04:43:11.334Z,90.10
2019-05-15T04:48:11.084Z,90.90
2019-05-15T04:53:11.203Z,91.10
2019-05-15T04:58:10.993Z,91.20
2019-05-15T05:03:10.706Z,90.60
2019-05-15T05:08:11.323Z,90.50
2019-05-15T05:13:11.234Z,90.70
2019-05-15T05:18:10.922Z,90.30
2019-05-15T05:23:10.467Z,90.90
2019-05-15T05:28:10.037Z,90.70
2019-05-15T05:33:09.643Z,90.50
2019-05-15T05:38:09.260Z,90.60
2019-05-15T05:43:09.517Z,91.30
2019-05-15T05:48:09.269Z,90.10
2019-05-15T05:53:09.073Z,90.20
2019-05-15T05:58:08.624Z,90.40
2019-05-15T06:03:08.898Z,90.30
2019-05-15T06:08:09.172Z,88.40
2019-05-15T06:13:08.935Z,89.30
2019-05-15T06:18:08.529Z,89.20
2019-05-15T06:23:08.528Z,90.70
2019-05-15T06:28:09.103Z,88.20
2019-05-15T06:33:13.281Z,87.50
2019-05-15T06:38:10.129Z,87.20
2019-05-15T06:43:09.690Z,85.80
2019-05-15T06:48:09.582Z,85.20
2019-05-15T06:53:10.842Z,84.00
2019-05-15T06:58:10.635Z,82.30
2019-05-15T07:03:21.571Z,80.50
2019-05-15T07:08:12.907Z,78.80
2019-05-15T07:13:12.525Z,80.30
2019-05-15T07:18:13.157Z,76.80
2019-05-15T07:23:12.713Z,76.10
2019-05-15T07:28:12.259Z,74.70
2019-05-15T07:33:11.790Z,75.80
2019-05-15T07:38:11.348Z,76.90
2019-05-15T07:43:10.903Z,68.10
2019-05-15T07:48:10.520Z,70.10
2019-05-15T07:53:10.140Z,63.70
2019-05-15T07:58:09.788Z,66.60
2019-05-15T08:03:10.259Z,60.50
2019-05-15T08:08:10.136Z,59.20
2019-05-15T08:13:11.018Z,57.90
2019-05-15T08:18:12.918Z,57.60
2019-05-15T08:23:12.038Z,55.40
2019-05-15T08:28:11.667Z,53.60
2019-05-15T08:33:11.422Z,58.10
2019-05-15T08:38:14.120Z,54.10
2019-05-15T08:43:12.338Z,55.00
2019-05-15T08:48:13.018Z,54.40
2019-05-15T08:53:12.560Z,54.90
2019-05-15T08:58:14.085Z,56.20
2019-05-15T09:03:13.373Z,55.90
2019-05-15T09:08:12.921Z,54.00
2019-05-15T09:13:12.474Z,54.70
2019-05-15T09:18:15.925Z,52.80
2019-05-15T09:23:13.265Z,53.10
2019-05-15T09:28:12.847Z,53.50
2019-05-15T09:33:12.466Z,52.00
2019-05-15T09:38:12.982Z,51.90
2019-05-15T09:43:12.539Z,52.80
2019-05-15T09:48:14.673Z,51.60
2019-05-15T09:53:13.351Z,52.80
2019-05-15T09:58:12.902Z,51.50
2019-05-15T10:03:12.529Z,51.40
2019-05-15T10:08:12.139Z,51.50
2019-05-15T10:13:11.680Z,50.00
2019-05-15T10:18:11.236Z,52.00
2019-05-15T10:23:10.799Z,52.30
2019-05-15T10:28:10.364Z,52.20
2019-05-15T10:33:09.917Z,53.10
2019-05-15T10:38:09.467Z,51.60
2019-05-15T10:43:09.372Z,51.70
2019-05-15T10:48:09.549Z,51.20
2019-05-15T10:53:11.295Z,53.00
2019-05-15T10:58:14.103Z,54.10
2019-05-15T11:03:12.008Z,54.20
2019-05-15T11:08:11.553Z,53.30
2019-05-15T11:13:11.120Z,54.50
2019-05-15T11:18:10.749Z,55.30
2019-05-15T11:23:15.692Z,55.10
2019-05-15T11:28:15.518Z,55.10
2019-05-15T11:33:15.054Z,55.70
2019-05-15T11:38:16.480Z,54.80
2019-05-15T11:43:15.854Z,54.50
2019-05-15T11:48:15.430Z,54.20
2019-05-15T11:53:15.007Z,54.30
2019-05-15T11:58:14.566Z,52.70
2019-05-15T12:03:14.125Z,52.50
2019-05-15T12:08:13.677Z,52.90
2019-05-15T12:13:13.240Z,52.80
2019-05-15T12:18:12.881Z,53.70
2019-05-15T12:23:12.436Z,53.50
2019-05-15T12:28:11.984Z,53.60
2019-05-15T12:33:11.581Z,52.40
2019-05-15T12:38:11.162Z,56.90
2019-05-15T13:03:18.107Z,51.40
2019-05-15T13:08:19.501Z,51.60
2019-05-15T13:13:18.785Z,50.60
2019-05-15T13:18:18.476Z,51.20
2019-05-15T13:23:19.742Z,50.40
2019-05-15T13:28:19.477Z,50.30
2019-05-15T13:33:19.127Z,50.70
2019-05-15T13:38:18.726Z,51.60
2019-05-15T13:43:18.698Z,52.70
2019-05-15T13:48:19.929Z,57.20
2019-05-15T13:53:19.719Z,60.00
2019-05-15T13:58:19.267Z,63.40
2019-05-15T14:03:18.924Z,66.20
2019-05-15T14:08:18.475Z,66.90
2019-05-15T14:13:18.896Z,70.50
2019-05-15T14:18:19.750Z,71.50
2019-05-15T14:23:19.931Z,70.30
2019-05-15T14:28:19.542Z,72.90
2019-05-15T14:33:19.532Z,70.00
2019-05-15T14:38:19.353Z,69.00
2019-05-15T14:43:19.006Z,69.90
2019-05-15T14:48:19.071Z,68.50
2019-05-15T14:53:18.842Z,67.50
2019-05-15T14:58:19.857Z,68.70
2019-05-15T15:03:19.747Z,69.70
2019-05-15T15:08:25.025Z,68.40
2019-05-15T15:13:20.619Z,69.10
2019-05-15T15:18:20.455Z,70.60
2019-05-15T15:23:20.006Z,67.00
2019-05-15T15:28:19.623Z,66.00
2019-05-15T15:33:19.182Z,67.20
2019-05-15T15:38:32.473Z,67.40
2019-05-15T15:43:20.119Z,66.70
2019-05-15T15:48:19.735Z,67.80
2019-05-15T15:53:19.303Z,66.50
2019-05-15T15:58:19.948Z,66.60
2019-05-15T16:03:19.903Z,66.10
2019-05-15T16:08:19.518Z,65.20
2019-05-15T16:13:19.092Z,69.70
2019-05-15T16:18:18.754Z,66.90
2019-05-15T16:23:19.364Z,64.60
2019-05-15T16:28:18.902Z,65.60
2019-05-15T16:33:18.605Z,65.80
2019-05-15T16:38:19.236Z,64.40
2019-05-15T16:43:18.986Z,63.50
2019-05-15T16:48:18.815Z,62.50
2019-05-15T16:53:18.471Z,63.90
2019-05-15T16:58:19.297Z,65.00
2019-05-15T17:03:20.231Z,66.20
2019-05-15T17:08:19.811Z,66.60
2019-05-15T17:13:19.380Z,68.00
2019-05-15T17:18:19.697Z,68.90
2019-05-15T17:23:19.373Z,68.90
2019-05-15T17:28:19.019Z,69.80
2019-05-15T17:33:18.613Z,70.00
2019-05-15T17:38:18.513Z,70.50
2019-05-15T17:43:18.524Z,71.40
2019-05-15T17:48:19.601Z,72.50
2019-05-15T17:53:19.594Z,73.90
2019-05-15T17:58:19.147Z,75.00
2019-05-15T18:03:19.110Z,76.20
2019-05-15T18:08:19.333Z,76.70
2019-05-15T18:13:19.191Z,78.60
2019-05-15T18:18:18.829Z,80.30
2019-05-15T18:23:18.866Z,83.00
2019-05-15T18:28:18.854Z,86.80
2019-05-15T18:33:18.646Z,91.50
2019-05-15T18:38:19.082Z,94.10
2019-05-15T18:43:18.866Z,94.50
2019-05-15T18:48:18.572Z,96.00
2019-05-15T18:53:18.184Z,95.50
2019-05-15T18:58:18.924Z,96.50
2019-05-15T19:03:22.638Z,96.60
2019-05-15T19:08:20.098Z,96.40
2019-05-15T19:13:19.668Z,96.80
2019-05-15T19:18:19.281Z,96.60
2019-05-15T19:23:18.847Z,97.10
2019-05-15T19:28:18.899Z,97.60
2019-05-15T19:33:33.009Z,97.40
2019-05-15T19:38:21.089Z,97.00
2019-05-15T19:43:20.800Z,97.40
2019-05-15T19:48:20.451Z,97.20
2019-05-15T19:53:20.097Z,96.70
2019-05-15T19:58:19.703Z,96.70
2019-05-15T20:03:20.185Z,96.40
2019-05-15T20:08:20.185Z,95.80
2019-05-15T20:13:19.783Z,95.30
2019-05-15T20:18:20.906Z,95.80
2019-05-15T20:23:20.535Z,95.10
2019-05-15T20:28:20.085Z,94.90
2019-05-15T20:33:19.619Z,94.50
2019-05-15T20:38:19.172Z,94.70
2019-05-15T20:43:18.748Z,94.80
2019-05-15T20:48:18.517Z,94.60
2019-05-15T20:53:18.622Z,94.90
2019-05-15T20:58:19.466Z,94.50
2019-05-15T21:03:19.271Z,94.50
2019-05-15T21:08:18.873Z,94.30
2019-05-15T21:13:18.423Z,94.40
2019-05-15T21:18:20.129Z,94.10
2019-05-15T21:23:20.015Z,94.60
2019-05-15T21:28:19.565Z,94.00
2019-05-15T21:33:19.134Z,94.20
2019-05-15T21:38:21.396Z,94.20
2019-05-15T21:43:20.768Z,94.10
2019-05-15T21:48:20.899Z,94.20
2019-05-15T21:53:20.543Z,94.10
2019-05-15T21:58:20.087Z,94.00
2019-05-15T22:03:19.900Z,93.80
2019-05-15T22:08:19.507Z,93.80
2019-05-15T22:13:19.126Z,94.10
2019-05-15T22:18:19.134Z,93.50
2019-05-15T22:23:18.748Z,93.40
2019-05-15T22:28:18.304Z,93.10
2019-05-15T22:33:18.000Z,93.20
2019-05-15T22:38:18.094Z,93.10
2019-05-15T22:43:18.684Z,93.50
2019-05-15T22:48:18.390Z,93.00
2019-05-15T22:53:17.948Z,93.00
2019-05-15T22:58:17.499Z,93.00
2019-05-15T23:03:19.000Z,93.50
2019-05-15T23:08:18.534Z,93.60
2019-05-15T23:13:18.363Z,94.40
2019-05-15T23:18:18.011Z,95.60
2019-05-15T23:23:18.178Z,97.40
2019-05-15T23:28:17.850Z,98.80
2019-05-15T23:33:18.871Z,99.90
2019-05-15T23:38:18.535Z,99.90
2019-05-15T23:43:18.971Z,99.90
2019-05-15T23:48:18.728Z,99.90
2019-05-15T23:53:19.662Z,99.90
2019-05-15T23:58:20.711Z,99.90
